sensor_id;sensor_type;location;lat;lon;timestamp;noise_LAeq;noise_LA_min;noise_LA_max;noise_LA01;noise_LA95
11999;Laerm;40817;51.520;9.954;2024-01-15T00:00:45;49.20;39.58;72.36;;
11999;Laerm;40817;51.520;9.954;2024-01-15T00:03:13;47.88;39.58;73.08;;
11999;Laerm;40817;51.520;9.954;2024-01-15T00:05:40;46.97;39.46;67.63;;
11999;Laerm;40817;51.520;9.954;2024-01-15T00:08:07;47.26;40.62;70.94;;
11999;Laerm;40817;51.520;9.954;2024-01-15T00:10:34;45.04;39.70;65.47;;
11999;Laerm;40817;51.520;9.954;2024-01-15T00:13:02;44.54;39.21;66.69;;
11999;Laerm;40817;51.520;9.954;2024-01-15T00:15:29;44.63;39.46;69.14;;
11999;Laerm;40817;51.520;9.954;2024-01-15T00:17:58;44.26;39.58;67.55;;
11999;Laerm;40817;51.520;9.954;2024-01-15T00:20:25;44.31;39.58;71.28;;
11999;Laerm;40817;51.520;9.954;2024-01-15T00:22:52;46.80;40.23;61.99;;
11999;Laerm;40817;51.520;9.954;2024-01-15T00:25:20;48.81;39.70;69.52;;
11999;Laerm;40817;51.520;9.954;2024-01-15T00:27:47;43.77;39.46;62.59;;
11999;Laerm;40817;51.520;9.954;2024-01-15T00:30:15;44.54;40.23;69.00;;
11999;Laerm;40817;51.520;9.954;2024-01-15T00:32:42;43.47;39.21;66.68;;
11999;Laerm;40817;51.520;9.954;2024-01-15T00:35:11;43.09;39.08;60.70;;
11999;Laerm;40817;51.520;9.954;2024-01-15T00:37:38;44.00;40.03;67.81;;
11999;Laerm;40817;51.520;9.954;2024-01-15T00:40:07;44.69;39.70;63.95;;
11999;Laerm;40817;51.520;9.954;2024-01-15T00:42:34;45.37;40.33;72.63;;
11999;Laerm;40817;51.520;9.954;2024-01-15T00:45:02;43.68;40.33;66.77;;
11999;Laerm;40817;51.520;9.954;2024-01-15T00:47:31;43.34;40.13;65.80;;
11999;Laerm;40817;51.520;9.954;2024-01-15T00:49:58;43.66;40.23;61.87;;
11999;Laerm;40817;51.520;9.954;2024-01-15T00:52:27;43.40;39.92;60.92;;
11999;Laerm;40817;51.520;9.954;2024-01-15T00:54:54;43.90;40.23;67.25;;
11999;Laerm;40817;51.520;9.954;2024-01-15T00:57:21;43.00;39.70;61.29;;
11999;Laerm;40817;51.520;9.954;2024-01-15T00:59:48;43.08;38.81;64.75;;
11999;Laerm;40817;51.520;9.954;2024-01-15T01:02:14;44.73;39.08;68.65;;
11999;Laerm;40817;51.520;9.954;2024-01-15T01:04:42;44.96;39.46;70.85;;
11999;Laerm;40817;51.520;9.954;2024-01-15T01:07:09;45.27;39.46;71.81;;
11999;Laerm;40817;51.520;9.954;2024-01-15T01:09:37;44.96;39.08;73.10;;
11999;Laerm;40817;51.520;9.954;2024-01-15T01:12:06;45.37;39.08;70.81;;
11999;Laerm;40817;51.520;9.954;2024-01-15T01:14:33;45.94;38.95;71.65;;
11999;Laerm;40817;51.520;9.954;2024-01-15T01:17:01;48.00;39.34;71.49;;
11999;Laerm;40817;51.520;9.954;2024-01-15T01:19:28;48.48;38.37;69.27;;
11999;Laerm;40817;51.520;9.954;2024-01-15T01:21:56;49.76;38.95;72.49;;
11999;Laerm;40817;51.520;9.954;2024-01-15T01:24:23;49.64;39.08;73.07;;
11999;Laerm;40817;51.520;9.954;2024-01-15T01:26:52;48.82;39.08;72.20;;
11999;Laerm;40817;51.520;9.954;2024-01-15T01:29:19;47.89;38.67;73.11;;
11999;Laerm;40817;51.520;9.954;2024-01-15T01:31:47;47.68;38.05;67.44;;
11999;Laerm;40817;51.520;9.954;2024-01-15T01:34:15;47.46;38.67;68.46;;
11999;Laerm;40817;51.520;9.954;2024-01-15T01:36:43;47.20;39.08;72.44;;
11999;Laerm;40817;51.520;9.954;2024-01-15T01:39:11;46.86;38.95;73.52;;
11999;Laerm;40817;51.520;9.954;2024-01-15T01:41:39;48.19;39.92;74.12;;
11999;Laerm;40817;51.520;9.954;2024-01-15T01:44:07;48.05;38.95;71.86;;
11999;Laerm;40817;51.520;9.954;2024-01-15T01:46:36;48.28;39.08;70.11;;
11999;Laerm;40817;51.520;9.954;2024-01-15T01:49:07;48.42;40.43;71.48;;
11999;Laerm;40817;51.520;9.954;2024-01-15T01:51:36;48.88;39.81;72.48;;
11999;Laerm;40817;51.520;9.954;2024-01-15T01:54:05;49.95;39.92;71.21;;
11999;Laerm;40817;51.520;9.954;2024-01-15T01:56:34;57.00;37.88;73.56;;
11999;Laerm;40817;51.520;9.954;2024-01-15T01:59:02;49.23;39.46;70.73;;
11999;Laerm;40817;51.520;9.954;2024-01-15T02:01:31;48.50;40.23;70.49;;
11999;Laerm;40817;51.520;9.954;2024-01-15T02:03:59;49.51;40.89;74.74;;
11999;Laerm;40817;51.520;9.954;2024-01-15T02:06:27;48.71;41.06;73.32;;
11999;Laerm;40817;51.520;9.954;2024-01-15T02:08:54;49.42;40.43;76.83;;
11999;Laerm;40817;51.520;9.954;2024-01-15T02:11:22;48.56;40.03;67.82;;
11999;Laerm;40817;51.520;9.954;2024-01-15T02:13:49;48.76;39.70;71.40;;
11999;Laerm;40817;51.520;9.954;2024-01-15T02:16:16;48.74;40.13;72.73;;
11999;Laerm;40817;51.520;9.954;2024-01-15T02:18:46;49.22;39.70;72.93;;
11999;Laerm;40817;51.520;9.954;2024-01-15T02:21:13;47.89;39.70;67.68;;
11999;Laerm;40817;51.520;9.954;2024-01-15T02:23:42;47.71;40.23;68.40;;
11999;Laerm;40817;51.520;9.954;2024-01-15T02:26:09;47.95;39.81;69.22;;
11999;Laerm;40817;51.520;9.954;2024-01-15T02:28:37;47.65;40.03;71.84;;
11999;Laerm;40817;51.520;9.954;2024-01-15T02:31:03;46.71;38.37;69.14;;
11999;Laerm;40817;51.520;9.954;2024-01-15T02:33:31;45.45;41.06;67.40;;
11999;Laerm;40817;51.520;9.954;2024-01-15T02:35:58;44.80;40.43;66.76;;
11999;Laerm;40817;51.520;9.954;2024-01-15T02:38:25;45.66;39.58;70.23;;
11999;Laerm;40817;51.520;9.954;2024-01-15T02:40:54;45.71;40.03;67.18;;
11999;Laerm;40817;51.520;9.954;2024-01-15T02:43:21;46.25;39.70;68.08;;
11999;Laerm;40817;51.520;9.954;2024-01-15T02:45:48;46.11;39.21;68.29;;
11999;Laerm;40817;51.520;9.954;2024-01-15T02:48:18;46.41;39.58;69.11;;
11999;Laerm;40817;51.520;9.954;2024-01-15T02:50:45;43.84;39.21;66.50;;
11999;Laerm;40817;51.520;9.954;2024-01-15T02:53:13;42.97;39.70;58.33;;
11999;Laerm;40817;51.520;9.954;2024-01-15T02:55:40;45.61;39.92;69.67;;
11999;Laerm;40817;51.520;9.954;2024-01-15T02:58:08;43.02;39.92;57.10;;
11999;Laerm;40817;51.520;9.954;2024-01-15T03:00:36;43.55;40.03;50.38;;
11999;Laerm;40817;51.520;9.954;2024-01-15T03:03:03;43.30;39.21;58.13;;
11999;Laerm;40817;51.520;9.954;2024-01-15T03:05:30;43.35;40.33;48.95;;
11999;Laerm;40817;51.520;9.954;2024-01-15T03:07:58;43.28;39.81;54.11;;
11999;Laerm;40817;51.520;9.954;2024-01-15T03:10:25;47.30;40.53;64.63;;
11999;Laerm;40817;51.520;9.954;2024-01-15T03:12:52;43.27;39.81;53.56;;
11999;Laerm;40817;51.520;9.954;2024-01-15T03:15:21;46.40;40.62;72.39;;
11999;Laerm;40817;51.520;9.954;2024-01-15T03:17:48;43.17;40.13;57.85;;
11999;Laerm;40817;51.520;9.954;2024-01-15T03:20:15;43.39;39.58;53.55;;
11999;Laerm;40817;51.520;9.954;2024-01-15T03:22:43;43.21;40.03;57.25;;
11999;Laerm;40817;51.520;9.954;2024-01-15T03:25:10;43.56;39.81;58.90;;
11999;Laerm;40817;51.520;9.954;2024-01-15T03:27:37;43.50;40.33;57.83;;
11999;Laerm;40817;51.520;9.954;2024-01-15T03:30:06;43.45;39.92;60.07;;
11999;Laerm;40817;51.520;9.954;2024-01-15T03:32:35;43.38;40.08;59.27;;
11999;Laerm;40817;51.520;9.954;2024-01-15T03:35:03;43.51;40.13;59.69;;
11999;Laerm;40817;51.520;9.954;2024-01-15T03:37:30;43.74;40.03;59.75;;
11999;Laerm;40817;51.520;9.954;2024-01-15T03:39:57;45.20;40.71;66.44;;
11999;Laerm;40817;51.520;9.954;2024-01-15T03:42:24;46.01;41.14;67.69;;
11999;Laerm;40817;51.520;9.954;2024-01-15T03:44:52;44.39;41.30;59.14;;
11999;Laerm;40817;51.520;9.954;2024-01-15T03:47:19;44.50;41.22;59.40;;
11999;Laerm;40817;51.520;9.954;2024-01-15T03:49:48;44.40;40.53;60.17;;
11999;Laerm;40817;51.520;9.954;2024-01-15T03:52:15;43.91;40.89;59.64;;
11999;Laerm;40817;51.520;9.954;2024-01-15T03:54:42;44.42;41.30;59.48;;
11999;Laerm;40817;51.520;9.954;2024-01-15T03:57:09;45.00;40.89;63.30;;
11999;Laerm;40817;51.520;9.954;2024-01-15T03:59:36;46.45;41.75;62.04;;
11999;Laerm;40817;51.520;9.954;2024-01-15T04:02:04;44.50;40.98;60.19;;
11999;Laerm;40817;51.520;9.954;2024-01-15T04:04:32;44.30;41.75;59.25;;
11999;Laerm;40817;51.520;9.954;2024-01-15T04:07:00;44.58;41.61;58.42;;
11999;Laerm;40817;51.520;9.954;2024-01-15T04:09:27;45.53;41.46;62.71;;
11999;Laerm;40817;51.520;9.954;2024-01-15T04:11:55;44.36;41.14;59.60;;
11999;Laerm;40817;51.520;9.954;2024-01-15T04:14:22;44.20;40.13;56.79;;
11999;Laerm;40817;51.520;9.954;2024-01-15T04:16:49;43.93;41.46;55.47;;
11999;Laerm;40817;51.520;9.954;2024-01-15T04:19:16;43.95;41.22;52.24;;
11999;Laerm;40817;51.520;9.954;2024-01-15T04:21:43;43.96;41.38;49.14;;
11999;Laerm;40817;51.520;9.954;2024-01-15T04:24:12;44.11;41.75;45.97;;
11999;Laerm;40817;51.520;9.954;2024-01-15T04:26:39;45.16;41.38;55.21;;
11999;Laerm;40817;51.520;9.954;2024-01-15T04:29:06;44.40;41.75;55.81;;
11999;Laerm;40817;51.520;9.954;2024-01-15T04:31:34;44.55;41.46;68.30;;
11999;Laerm;40817;51.520;9.954;2024-01-15T04:34:01;44.46;41.82;61.56;;
11999;Laerm;40817;51.520;9.954;2024-01-15T04:36:28;44.42;41.68;57.17;;
11999;Laerm;40817;51.520;9.954;2024-01-15T04:38:55;45.82;42.35;70.76;;
11999;Laerm;40817;51.520;9.954;2024-01-15T04:41:24;44.14;42.06;53.86;;
11999;Laerm;40817;51.520;9.954;2024-01-15T04:43:51;44.02;41.38;50.09;;
11999;Laerm;40817;51.520;9.954;2024-01-15T04:46:19;44.02;41.46;49.59;;
11999;Laerm;40817;51.520;9.954;2024-01-15T04:48:46;44.82;41.75;59.69;;
11999;Laerm;40817;51.520;9.954;2024-01-15T04:51:13;45.36;41.75;72.15;;
11999;Laerm;40817;51.520;9.954;2024-01-15T04:53:42;44.24;41.30;51.87;;
11999;Laerm;40817;51.520;9.954;2024-01-15T04:56:09;44.34;41.30;53.63;;
11999;Laerm;40817;51.520;9.954;2024-01-15T04:58:37;44.78;41.46;56.02;;
11999;Laerm;40817;51.520;9.954;2024-01-15T05:01:05;44.92;42.22;54.03;;
11999;Laerm;40817;51.520;9.954;2024-01-15T05:03:32;44.55;41.30;53.26;;
11999;Laerm;40817;51.520;9.954;2024-01-15T05:05:59;44.84;41.46;55.37;;
11999;Laerm;40817;51.520;9.954;2024-01-15T05:08:26;44.10;41.30;55.51;;
11999;Laerm;40817;51.520;9.954;2024-01-15T05:10:54;43.95;41.75;57.87;;
11999;Laerm;40817;51.520;9.954;2024-01-15T05:13:21;44.25;41.38;56.94;;
11999;Laerm;40817;51.520;9.954;2024-01-15T05:15:49;44.60;41.38;52.91;;
11999;Laerm;40817;51.520;9.954;2024-01-15T05:18:17;45.43;41.94;57.78;;
11999;Laerm;40817;51.520;9.954;2024-01-15T05:20:45;44.25;41.38;51.87;;
11999;Laerm;40817;51.520;9.954;2024-01-15T05:23:12;44.36;41.75;60.65;;
11999;Laerm;40817;51.520;9.954;2024-01-15T05:25:39;44.74;42.29;52.47;;
11999;Laerm;40817;51.520;9.954;2024-01-15T05:28:07;44.40;41.61;54.02;;
11999;Laerm;40817;51.520;9.954;2024-01-15T05:30:34;45.26;41.82;55.30;;
11999;Laerm;40817;51.520;9.954;2024-01-15T05:33:03;45.48;41.06;62.01;;
11999;Laerm;40817;51.520;9.954;2024-01-15T05:35:31;44.10;41.38;57.76;;
11999;Laerm;40817;51.520;9.954;2024-01-15T05:37:58;46.96;41.89;63.59;;
11999;Laerm;40817;51.520;9.954;2024-01-15T05:40:25;47.88;42.47;69.50;;
11999;Laerm;40817;51.520;9.954;2024-01-15T05:42:53;45.50;42.03;61.04;;
11999;Laerm;40817;51.520;9.954;2024-01-15T05:45:20;47.19;41.89;68.25;;
11999;Laerm;40817;51.520;9.954;2024-01-15T05:47:47;48.80;41.96;69.94;;
11999;Laerm;40817;51.520;9.954;2024-01-15T05:50:16;48.16;42.03;69.89;;
11999;Laerm;40817;51.520;9.954;2024-01-15T05:52:44;49.43;41.89;70.17;;
11999;Laerm;40817;51.520;9.954;2024-01-15T05:55:11;50.26;42.71;70.64;;
11999;Laerm;40817;51.520;9.954;2024-01-15T05:57:38;51.29;42.09;72.49;;
11999;Laerm;40817;51.520;9.954;2024-01-15T06:00:07;46.70;42.47;68.40;;
11999;Laerm;40817;51.520;9.954;2024-01-15T06:02:37;47.22;42.35;70.56;;
11999;Laerm;40817;51.520;9.954;2024-01-15T06:05:06;49.24;42.71;69.62;;
11999;Laerm;40817;51.520;9.954;2024-01-15T06:07:35;48.57;41.89;71.15;;
11999;Laerm;40817;51.520;9.954;2024-01-15T06:10:02;48.22;42.22;67.32;;
11999;Laerm;40817;51.520;9.954;2024-01-15T06:12:30;48.16;41.30;69.21;;
11999;Laerm;40817;51.520;9.954;2024-01-15T06:14:58;47.25;40.98;71.86;;
11999;Laerm;40817;51.520;9.954;2024-01-15T06:17:25;48.01;42.74;68.88;;
11999;Laerm;40817;51.520;9.954;2024-01-15T06:19:53;47.27;42.65;67.67;;
11999;Laerm;40817;51.520;9.954;2024-01-15T06:22:20;45.78;42.09;69.41;;
11999;Laerm;40817;51.520;9.954;2024-01-15T06:24:48;45.84;42.03;71.37;;
11999;Laerm;40817;51.520;9.954;2024-01-15T06:27:16;45.55;41.46;69.19;;
11999;Laerm;40817;51.520;9.954;2024-01-15T06:29:46;48.78;42.29;64.61;;
11999;Laerm;40817;51.520;9.954;2024-01-15T06:32:14;48.10;42.22;70.35;;
11999;Laerm;40817;51.520;9.954;2024-01-15T06:34:41;46.15;41.30;71.03;;
11999;Laerm;40817;51.520;9.954;2024-01-15T06:37:08;44.51;41.61;64.23;;
11999;Laerm;40817;51.520;9.954;2024-01-15T06:39:35;45.15;42.03;64.55;;
11999;Laerm;40817;51.520;9.954;2024-01-15T06:42:05;45.00;41.75;63.35;;
11999;Laerm;40817;51.520;9.954;2024-01-15T06:44:32;45.72;41.75;67.45;;
11999;Laerm;40817;51.520;9.954;2024-01-15T06:46:59;47.26;42.59;64.06;;
11999;Laerm;40817;51.520;9.954;2024-01-15T06:49:28;46.59;42.47;64.70;;
11999;Laerm;40817;51.520;9.954;2024-01-15T06:51:55;45.11;42.35;62.11;;
11999;Laerm;40817;51.520;9.954;2024-01-15T06:54:23;45.56;41.75;66.00;;
11999;Laerm;40817;51.520;9.954;2024-01-15T06:56:52;46.16;42.53;63.52;;
11999;Laerm;40817;51.520;9.954;2024-01-15T06:59:20;46.59;41.22;71.75;;
11999;Laerm;40817;51.520;9.954;2024-01-15T07:01:48;45.76;42.09;62.03;;
11999;Laerm;40817;51.520;9.954;2024-01-15T07:04:15;46.08;42.22;66.30;;
11999;Laerm;40817;51.520;9.954;2024-01-15T07:06:42;45.39;42.09;67.18;;
11999;Laerm;40817;51.520;9.954;2024-01-15T07:09:10;45.68;42.09;70.92;;
11999;Laerm;40817;51.520;9.954;2024-01-15T07:11:37;45.45;42.03;57.81;;
11999;Laerm;40817;51.520;9.954;2024-01-15T07:14:04;45.48;41.22;66.62;;
11999;Laerm;40817;51.520;9.954;2024-01-15T07:16:33;44.81;40.33;61.82;;
11999;Laerm;40817;51.520;9.954;2024-01-15T07:19:00;44.88;40.62;61.93;;
11999;Laerm;40817;51.520;9.954;2024-01-15T07:21:27;45.50;41.53;68.52;;
11999;Laerm;40817;51.520;9.954;2024-01-15T07:23:55;54.25;42.16;67.84;;
11999;Laerm;40817;51.520;9.954;2024-01-15T07:26:23;45.42;42.35;58.58;;
11999;Laerm;40817;51.520;9.954;2024-01-15T07:28:51;46.26;41.89;62.96;;
11999;Laerm;40817;51.520;9.954;2024-01-15T07:31:18;59.23;42.65;70.13;;
11999;Laerm;40817;51.520;9.954;2024-01-15T07:33:47;49.02;41.46;73.03;;
11999;Laerm;40817;51.520;9.954;2024-01-15T07:36:15;47.29;41.61;67.92;;
11999;Laerm;40817;51.520;9.954;2024-01-15T07:38:42;47.00;42.09;67.69;;
11999;Laerm;40817;51.520;9.954;2024-01-15T07:41:09;44.61;41.68;61.27;;
11999;Laerm;40817;51.520;9.954;2024-01-15T07:43:39;45.41;41.68;68.87;;
11999;Laerm;40817;51.520;9.954;2024-01-15T07:46:06;46.36;42.16;68.29;;
11999;Laerm;40817;51.520;9.954;2024-01-15T07:48:34;44.79;41.53;62.92;;
11999;Laerm;40817;51.520;9.954;2024-01-15T07:51:03;45.66;40.89;69.34;;
11999;Laerm;40817;51.520;9.954;2024-01-15T07:53:30;45.78;41.68;69.78;;
11999;Laerm;40817;51.520;9.954;2024-01-15T07:55:58;46.41;41.53;63.68;;
11999;Laerm;40817;51.520;9.954;2024-01-15T07:58:25;45.05;41.22;67.64;;
11999;Laerm;40817;51.520;9.954;2024-01-15T08:00:52;63.64;41.61;81.02;;
11999;Laerm;40817;51.520;9.954;2024-01-15T08:03:20;59.08;41.96;82.29;;
11999;Laerm;40817;51.520;9.954;2024-01-15T08:05:47;47.45;41.82;66.69;;
11999;Laerm;40817;51.520;9.954;2024-01-15T08:08:19;59.64;42.41;81.73;;
11999;Laerm;40817;51.520;9.954;2024-01-15T08:10:48;66.59;41.96;88.02;;
11999;Laerm;40817;51.520;9.954;2024-01-15T08:13:15;49.89;41.75;75.16;;
11999;Laerm;40817;51.520;9.954;2024-01-15T08:15:43;46.94;42.03;66.84;;
11999;Laerm;40817;51.520;9.954;2024-01-15T08:18:10;46.62;40.80;67.82;;
11999;Laerm;40817;51.520;9.954;2024-01-15T08:20:37;47.07;41.53;68.49;;
11999;Laerm;40817;51.520;9.954;2024-01-15T08:23:04;48.36;41.89;72.46;;
11999;Laerm;40817;51.520;9.954;2024-01-15T08:25:33;47.70;41.46;71.94;;
11999;Laerm;40817;51.520;9.954;2024-01-15T08:28:00;48.50;41.38;72.70;;
11999;Laerm;40817;51.520;9.954;2024-01-15T08:30:28;48.50;41.22;71.70;;
11999;Laerm;40817;51.520;9.954;2024-01-15T08:32:55;47.47;41.82;72.79;;
11999;Laerm;40817;51.520;9.954;2024-01-15T08:35:23;47.00;41.53;70.25;;
11999;Laerm;40817;51.520;9.954;2024-01-15T08:37:52;48.98;41.68;72.71;;
11999;Laerm;40817;51.520;9.954;2024-01-15T08:40:19;47.42;41.61;71.37;;
11999;Laerm;40817;51.520;9.954;2024-01-15T08:42:48;46.13;41.14;67.91;;
11999;Laerm;40817;51.520;9.954;2024-01-15T08:45:15;46.25;40.54;69.56;;
11999;Laerm;40817;51.520;9.954;2024-01-15T08:47:43;46.89;40.53;73.90;;
11999;Laerm;40817;51.520;9.954;2024-01-15T08:50:10;46.15;40.89;69.66;;
11999;Laerm;40817;51.520;9.954;2024-01-15T08:52:37;47.02;41.30;72.94;;
11999;Laerm;40817;51.520;9.954;2024-01-15T08:55:05;47.16;40.53;71.33;;
11999;Laerm;40817;51.520;9.954;2024-01-15T08:57:33;46.66;41.38;69.83;;
11999;Laerm;40817;51.520;9.954;2024-01-15T09:00:03;46.35;41.68;73.75;;
11999;Laerm;40817;51.520;9.954;2024-01-15T09:02:34;46.36;38.81;71.03;;
11999;Laerm;40817;51.520;9.954;2024-01-15T09:05:02;46.15;40.53;66.68;;
11999;Laerm;40817;51.520;9.954;2024-01-15T09:07:30;46.45;40.98;69.17;;
11999;Laerm;40817;51.520;9.954;2024-01-15T09:09:57;45.64;40.98;70.84;;
11999;Laerm;40817;51.520;9.954;2024-01-15T09:12:25;47.18;41.14;71.76;;
11999;Laerm;40817;51.520;9.954;2024-01-15T09:14:53;46.39;40.62;71.90;;
11999;Laerm;40817;51.520;9.954;2024-01-15T09:17:21;47.16;40.62;70.73;;
11999;Laerm;40817;51.520;9.954;2024-01-15T09:19:49;46.82;40.62;71.86;;
11999;Laerm;40817;51.520;9.954;2024-01-15T09:22:16;48.18;40.89;72.30;;
11999;Laerm;40817;51.520;9.954;2024-01-15T09:24:44;46.82;41.22;69.36;;
11999;Laerm;40817;51.520;9.954;2024-01-15T09:27:12;47.64;40.98;71.54;;
11999;Laerm;40817;51.520;9.954;2024-01-15T09:29:41;47.02;41.46;70.76;;
11999;Laerm;40817;51.520;9.954;2024-01-15T09:32:11;47.58;40.53;76.20;;
11999;Laerm;40817;51.520;9.954;2024-01-15T09:34:40;45.83;40.03;70.83;;
11999;Laerm;40817;51.520;9.954;2024-01-15T09:37:08;48.15;40.23;74.13;;
11999;Laerm;40817;51.520;9.954;2024-01-15T09:39:35;47.57;40.53;68.14;;
11999;Laerm;40817;51.520;9.954;2024-01-15T09:42:03;46.88;40.43;68.99;;
11999;Laerm;40817;51.520;9.954;2024-01-15T09:44:31;45.95;40.53;67.66;;
11999;Laerm;40817;51.520;9.954;2024-01-15T09:46:59;46.48;40.71;70.64;;
11999;Laerm;40817;51.520;9.954;2024-01-15T09:49:26;47.43;40.71;67.80;;
11999;Laerm;40817;51.520;9.954;2024-01-15T09:51:57;47.19;40.13;69.38;;
11999;Laerm;40817;51.520;9.954;2024-01-15T09:54:25;48.08;40.71;69.98;;
11999;Laerm;40817;51.520;9.954;2024-01-15T09:56:54;48.42;39.81;72.89;;
11999;Laerm;40817;51.520;9.954;2024-01-15T09:59:23;47.07;40.53;72.84;;
11999;Laerm;40817;51.520;9.954;2024-01-15T10:01:52;47.19;40.80;68.66;;
11999;Laerm;40817;51.520;9.954;2024-01-15T10:04:20;49.89;42.22;69.27;;
11999;Laerm;40817;51.520;9.954;2024-01-15T10:06:51;50.68;40.98;74.79;;
11999;Laerm;40817;51.520;9.954;2024-01-15T10:09:20;49.20;39.58;70.56;;
11999;Laerm;40817;51.520;9.954;2024-01-15T10:11:48;48.92;40.23;71.33;;
11999;Laerm;40817;51.520;9.954;2024-01-15T10:14:15;49.12;40.33;71.13;;
11999;Laerm;40817;51.520;9.954;2024-01-15T10:16:43;49.23;39.46;71.46;;
11999;Laerm;40817;51.520;9.954;2024-01-15T10:19:10;49.25;40.23;71.96;;
11999;Laerm;40817;51.520;9.954;2024-01-15T10:21:38;49.07;40.79;69.50;;
11999;Laerm;40817;51.520;9.954;2024-01-15T10:24:06;49.51;40.13;71.94;;
11999;Laerm;40817;51.520;9.954;2024-01-15T10:26:35;48.97;40.53;69.91;;
11999;Laerm;40817;51.520;9.954;2024-01-15T10:29:02;50.31;41.38;70.59;;
11999;Laerm;40817;51.520;9.954;2024-01-15T10:31:29;50.49;41.06;73.06;;
11999;Laerm;40817;51.520;9.954;2024-01-15T10:34:10;54.00;40.71;72.93;;
11999;Laerm;40817;51.520;9.954;2024-01-15T10:36:40;54.08;41.22;74.61;;
11999;Laerm;40817;51.520;9.954;2024-01-15T10:39:07;55.37;40.62;74.65;;
11999;Laerm;40817;51.520;9.954;2024-01-15T10:41:36;52.95;41.38;71.77;;
11999;Laerm;40817;51.520;9.954;2024-01-15T10:44:04;52.92;40.98;73.47;;
11999;Laerm;40817;51.520;9.954;2024-01-15T10:46:33;53.51;41.14;72.71;;
11999;Laerm;40817;51.520;9.954;2024-01-15T10:49:02;51.55;41.30;69.96;;
11999;Laerm;40817;51.520;9.954;2024-01-15T10:51:30;53.56;41.06;72.01;;
11999;Laerm;40817;51.520;9.954;2024-01-15T10:53:58;54.96;41.53;73.35;;
11999;Laerm;40817;51.520;9.954;2024-01-15T10:56:28;54.62;40.43;75.24;;
11999;Laerm;40817;51.520;9.954;2024-01-15T10:58:59;53.69;40.71;70.66;;
11999;Laerm;40817;51.520;9.954;2024-01-15T11:01:26;54.48;41.68;73.02;;
11999;Laerm;40817;51.520;9.954;2024-01-15T11:03:55;53.33;42.47;71.27;;
11999;Laerm;40817;51.520;9.954;2024-01-15T11:06:25;52.76;41.14;79.86;;
11999;Laerm;40817;51.520;9.954;2024-01-15T11:08:55;51.68;40.62;72.76;;
11999;Laerm;40817;51.520;9.954;2024-01-15T11:11:23;51.68;41.38;77.10;;
11999;Laerm;40817;51.520;9.954;2024-01-15T11:13:50;50.42;40.98;70.62;;
11999;Laerm;40817;51.520;9.954;2024-01-15T11:16:19;55.59;41.30;90.29;;
11999;Laerm;40817;51.520;9.954;2024-01-15T11:19:02;49.21;40.54;70.62;;
11999;Laerm;40817;51.520;9.954;2024-01-15T11:21:32;50.47;41.46;76.88;;
11999;Laerm;40817;51.520;9.954;2024-01-15T11:24:01;49.80;40.53;76.09;;
11999;Laerm;40817;51.520;9.954;2024-01-15T11:26:36;50.46;41.06;81.92;;
11999;Laerm;40817;51.520;9.954;2024-01-15T11:29:06;50.96;41.53;74.26;;
11999;Laerm;40817;51.520;9.954;2024-01-15T11:32:04;48.01;40.80;69.68;;
11999;Laerm;40817;51.520;9.954;2024-01-15T11:34:55;51.93;41.22;79.75;;
11999;Laerm;40817;51.520;9.954;2024-01-15T11:37:25;54.06;41.38;87.77;;
11999;Laerm;40817;51.520;9.954;2024-01-15T11:39:54;59.23;42.16;80.79;;
11999;Laerm;40817;51.520;9.954;2024-01-15T11:42:22;63.16;41.53;82.96;;
11999;Laerm;40817;51.520;9.954;2024-01-15T11:44:50;55.93;41.38;88.71;;
11999;Laerm;40817;51.520;9.954;2024-01-15T11:48:09;53.17;40.36;83.81;;
11999;Laerm;40817;51.520;9.954;2024-01-15T11:50:43;46.41;40.98;69.63;;
11999;Laerm;40817;51.520;9.954;2024-01-15T11:53:33;48.01;41.53;69.13;;
11999;Laerm;40817;51.520;9.954;2024-01-15T11:56:16;51.69;41.89;73.50;;
11999;Laerm;40817;51.520;9.954;2024-01-15T11:58:44;53.58;41.68;72.17;;
11999;Laerm;40817;51.520;9.954;2024-01-15T12:01:12;48.43;41.61;69.35;;
11999;Laerm;40817;51.520;9.954;2024-01-15T12:03:40;46.44;40.23;69.72;;
11999;Laerm;40817;51.520;9.954;2024-01-15T12:06:09;45.20;40.03;68.58;;
11999;Laerm;40817;51.520;9.954;2024-01-15T12:08:37;47.10;40.98;70.65;;
11999;Laerm;40817;51.520;9.954;2024-01-15T12:11:07;47.80;40.98;69.37;;
11999;Laerm;40817;51.520;9.954;2024-01-15T12:13:37;47.12;41.06;70.81;;
11999;Laerm;40817;51.520;9.954;2024-01-15T12:16:05;47.02;40.98;69.72;;
11999;Laerm;40817;51.520;9.954;2024-01-15T12:18:32;46.46;40.62;69.66;;
11999;Laerm;40817;51.520;9.954;2024-01-15T12:21:01;46.30;41.06;70.19;;
11999;Laerm;40817;51.520;9.954;2024-01-15T12:23:28;46.04;40.23;68.01;;
11999;Laerm;40817;51.520;9.954;2024-01-15T12:25:56;47.63;41.38;71.20;;
11999;Laerm;40817;51.520;9.954;2024-01-15T12:28:23;46.15;40.62;70.33;;
11999;Laerm;40817;51.520;9.954;2024-01-15T12:30:50;45.09;39.46;70.73;;
11999;Laerm;40817;51.520;9.954;2024-01-15T12:33:18;45.69;40.62;69.95;;
11999;Laerm;40817;51.520;9.954;2024-01-15T12:35:47;46.25;41.22;70.60;;
11999;Laerm;40817;51.520;9.954;2024-01-15T12:38:18;47.34;41.38;71.35;;
11999;Laerm;40817;51.520;9.954;2024-01-15T12:40:46;47.59;39.46;70.97;;
11999;Laerm;40817;51.520;9.954;2024-01-15T12:43:13;48.18;40.71;71.46;;
11999;Laerm;40817;51.520;9.954;2024-01-15T12:45:41;46.51;41.22;71.47;;
11999;Laerm;40817;51.520;9.954;2024-01-15T12:48:09;47.82;41.38;72.33;;
11999;Laerm;40817;51.520;9.954;2024-01-15T12:50:36;45.71;41.53;69.28;;
11999;Laerm;40817;51.520;9.954;2024-01-15T12:53:04;45.67;40.98;71.06;;
11999;Laerm;40817;51.520;9.954;2024-01-15T12:55:33;45.96;41.30;69.16;;
11999;Laerm;40817;51.520;9.954;2024-01-15T12:58:01;47.00;41.46;72.46;;
11999;Laerm;40817;51.520;9.954;2024-01-15T13:00:28;45.77;40.98;74.71;;
11999;Laerm;40817;51.520;9.954;2024-01-15T13:02:57;45.16;41.53;70.01;;
11999;Laerm;40817;51.520;9.954;2024-01-15T13:05:30;45.08;41.75;69.96;;
11999;Laerm;40817;51.520;9.954;2024-01-15T13:07:58;46.17;41.06;62.64;;
11999;Laerm;40817;51.520;9.954;2024-01-15T13:10:26;49.78;41.30;68.72;;
11999;Laerm;40817;51.520;9.954;2024-01-15T13:12:57;46.03;41.38;69.44;;
11999;Laerm;40817;51.520;9.954;2024-01-15T13:15:24;47.00;41.96;71.47;;
11999;Laerm;40817;51.520;9.954;2024-01-15T13:17:52;44.85;40.98;69.48;;
11999;Laerm;40817;51.520;9.954;2024-01-15T13:20:19;46.32;41.89;66.19;;
11999;Laerm;40817;51.520;9.954;2024-01-15T13:22:48;46.14;41.61;68.04;;
11999;Laerm;40817;51.520;9.954;2024-01-15T13:25:15;48.48;41.82;61.87;;
11999;Laerm;40817;51.520;9.954;2024-01-15T13:27:42;46.68;40.53;66.82;;
11999;Laerm;40817;51.520;9.954;2024-01-15T13:30:13;48.17;41.53;69.64;;
11999;Laerm;40817;51.520;9.954;2024-01-15T13:32:40;47.35;41.46;61.85;;
11999;Laerm;40817;51.520;9.954;2024-01-15T13:35:08;45.44;41.53;59.50;;
11999;Laerm;40817;51.520;9.954;2024-01-15T13:37:39;45.10;41.89;65.44;;
11999;Laerm;40817;51.520;9.954;2024-01-15T13:40:09;46.90;41.88;61.29;;
11999;Laerm;40817;51.520;9.954;2024-01-15T13:42:42;46.65;42.03;57.29;;
11999;Laerm;40817;51.520;9.954;2024-01-15T13:45:10;44.60;41.75;68.25;;
11999;Laerm;40817;51.520;9.954;2024-01-15T13:47:40;44.68;41.38;62.42;;
11999;Laerm;40817;51.520;9.954;2024-01-15T13:50:09;44.99;41.14;63.51;;